createdAt,value
2024-02-13T00:01:52.944Z,99067.00
2024-02-13T00:06:48.624Z,99062.00
2024-02-13T00:09:15.700Z,99065.00
2024-02-13T00:11:44.533Z,99083.00
2024-02-13T00:14:14.348Z,99080.00
2024-02-13T00:16:43.051Z,99085.00
2024-02-13T00:19:15.289Z,99096.00
2024-02-13T00:21:43.429Z,99095.00
2024-02-13T00:24:17.385Z,99096.00
2024-02-13T00:26:48.496Z,99101.00
2024-02-13T00:29:24.501Z,99115.00
2024-02-13T00:31:52.135Z,99105.00
2024-02-13T00:34:23.492Z,99112.00
2024-02-13T00:36:55.104Z,99107.00
2024-02-13T00:39:22.809Z,99122.00
2024-02-13T00:41:56.273Z,99122.00
2024-02-13T00:44:29.296Z,99124.00
2024-02-13T00:47:02.457Z,99140.00
2024-02-13T00:49:32.997Z,99145.00
2024-02-13T00:52:05.990Z,99132.00
2024-02-13T00:54:33.148Z,99135.00
2024-02-13T00:57:02.758Z,99151.00
2024-02-13T00:59:30.467Z,99150.00
2024-02-13T01:02:00.269Z,99156.00
2024-02-13T01:04:28.292Z,99158.00
2024-02-13T01:06:59.553Z,99156.00
2024-02-13T01:09:30.459Z,99170.00
2024-02-13T01:12:00.526Z,99160.00
2024-02-13T01:14:31.852Z,99175.00
2024-02-13T01:17:00.700Z,99175.00
2024-02-13T01:19:31.271Z,99173.00
2024-02-13T01:21:58.712Z,99174.00
2024-02-13T01:24:33.352Z,99178.00
2024-02-13T01:27:03.176Z,99186.00
2024-02-13T01:29:37.185Z,99194.00
2024-02-13T01:32:07.965Z,99189.00
2024-02-13T01:34:37.513Z,99183.00
2024-02-13T01:37:06.033Z,99190.00
2024-02-13T01:39:35.608Z,99187.00
2024-02-13T01:42:03.001Z,99190.00
2024-02-13T01:44:32.047Z,99183.00
2024-02-13T01:46:59.102Z,99194.00
2024-02-13T01:49:30.229Z,99186.00
2024-02-13T01:52:00.178Z,99188.00
2024-02-13T01:54:28.440Z,99191.00
2024-02-13T01:56:56.136Z,99190.00
2024-02-13T01:59:26.874Z,99199.00
2024-02-13T02:01:55.262Z,99191.00
2024-02-13T02:04:23.991Z,99207.00
2024-02-13T02:06:51.273Z,99214.00
2024-02-13T02:09:19.374Z,99211.00
2024-02-13T02:11:48.167Z,99209.00
2024-02-13T02:14:17.808Z,99219.00
2024-02-13T02:16:47.459Z,99216.00
2024-02-13T02:19:16.287Z,99215.00
2024-02-13T02:21:47.896Z,99220.00
2024-02-13T02:24:16.680Z,99228.00
2024-02-13T02:26:44.130Z,99226.00
2024-02-13T02:29:11.379Z,99225.00
2024-02-13T02:31:39.675Z,99229.00
2024-02-13T02:34:06.650Z,99231.00
2024-02-13T02:36:33.745Z,99237.00
2024-02-13T02:39:00.797Z,99246.00
2024-02-13T02:41:27.903Z,99239.00
2024-02-13T02:43:54.928Z,99249.00
2024-02-13T02:46:21.975Z,99254.00
2024-02-13T02:48:51.760Z,99239.00
2024-02-13T02:51:18.811Z,99247.00
2024-02-13T02:53:45.754Z,99248.00
2024-02-13T02:56:16.954Z,99254.00
2024-02-13T02:58:44.689Z,99253.00
2024-02-13T03:01:15.291Z,99253.00
2024-02-13T03:03:44.993Z,99257.00
2024-02-13T03:06:14.997Z,99249.00
2024-02-13T03:08:44.073Z,99255.00
2024-02-13T03:11:14.683Z,99254.00
2024-02-13T03:13:41.829Z,99243.00
2024-02-13T03:16:10.579Z,99270.00
2024-02-13T03:18:39.612Z,99255.00
2024-02-13T03:21:11.242Z,99262.00
2024-02-13T03:23:42.208Z,99267.00
2024-02-13T03:26:10.705Z,99264.00
2024-02-13T03:28:41.449Z,99255.00
2024-02-13T03:31:13.193Z,99275.00
2024-02-13T03:33:40.564Z,99270.00
2024-02-13T03:36:11.285Z,99274.00
2024-02-13T03:38:50.468Z,99264.00
2024-02-13T03:41:33.670Z,99267.00
2024-02-13T03:44:08.234Z,99273.00
2024-02-13T03:46:45.111Z,99280.00
2024-02-13T03:49:16.299Z,99278.00
2024-02-13T03:51:43.576Z,99284.00
2024-02-13T03:54:13.614Z,99283.00
2024-02-13T03:56:45.555Z,99272.00
2024-02-13T03:59:19.494Z,99273.00
2024-02-13T04:01:50.198Z,99271.00
2024-02-13T04:04:32.142Z,99272.00
2024-02-13T04:07:11.885Z,99279.00
2024-02-13T04:10:02.259Z,99281.00
2024-02-13T04:12:40.449Z,99293.00
2024-02-13T04:15:14.834Z,99289.00
2024-02-13T04:17:48.334Z,99285.00
2024-02-13T04:20:30.944Z,99272.00
2024-02-13T04:23:09.831Z,99289.00
2024-02-13T04:25:44.923Z,99297.00
2024-02-13T04:28:17.520Z,99284.00
2024-02-13T04:30:46.213Z,99293.00
2024-02-13T04:33:17.142Z,99294.00
2024-02-13T04:35:44.417Z,99305.00
2024-02-13T04:38:14.250Z,99287.00
2024-02-13T04:40:42.286Z,99289.00
2024-02-13T04:43:19.404Z,99308.00
2024-02-13T04:45:46.734Z,99285.00
2024-02-13T04:48:21.021Z,99312.00
2024-02-13T04:50:56.202Z,99306.00
2024-02-13T04:53:43.569Z,99304.00
2024-02-13T04:59:18.397Z,99309.00
2024-02-13T05:01:57.588Z,99308.00
2024-02-13T05:04:30.568Z,99314.00
2024-02-13T05:07:43.205Z,99330.00
2024-02-13T05:10:15.197Z,99327.00
2024-02-13T05:12:44.902Z,99329.00
2024-02-13T05:15:23.899Z,99340.00
2024-02-13T05:18:03.294Z,99351.00
2024-02-13T05:20:44.853Z,99334.00
2024-02-13T05:23:22.100Z,99335.00
2024-02-13T05:25:54.988Z,99340.00
2024-02-13T05:28:27.191Z,99324.00
2024-02-13T05:30:57.440Z,99313.00
2024-02-13T05:33:28.160Z,99330.00
2024-02-13T05:35:55.683Z,99338.00
2024-02-13T05:38:26.855Z,99322.00
2024-02-13T05:40:56.799Z,99321.00
2024-02-13T05:43:27.157Z,99326.00
2024-02-13T05:46:02.099Z,99324.00
2024-02-13T05:48:32.368Z,99330.00
2024-02-13T05:50:59.741Z,99335.00
2024-02-13T05:53:30.165Z,99332.00
2024-02-13T05:55:57.564Z,99343.00
2024-02-13T05:58:30.081Z,99324.00
2024-02-13T06:00:59.663Z,99334.00
2024-02-13T06:03:26.783Z,99341.00
2024-02-13T06:05:56.492Z,99340.00
2024-02-13T06:08:26.296Z,99340.00
2024-02-13T06:11:04.319Z,99353.00
2024-02-13T06:20:16.359Z,99357.00
2024-02-13T06:23:44.818Z,99346.00
2024-02-13T06:28:58.330Z,99357.00
2024-02-13T06:31:25.580Z,99377.00
2024-02-13T06:34:08.713Z,99379.00
2024-02-13T06:36:47.968Z,99381.00
2024-02-13T06:39:36.057Z,99371.00
2024-02-13T06:42:05.742Z,99381.00
2024-02-13T06:44:33.291Z,99376.00
2024-02-13T06:47:01.300Z,99385.00
2024-02-13T06:49:31.925Z,99382.00
2024-02-13T06:51:59.218Z,99397.00
2024-02-13T06:54:26.275Z,99397.00
2024-02-13T06:56:53.167Z,99395.00
2024-02-13T06:59:20.183Z,99393.00
2024-02-13T07:01:47.042Z,99421.00
2024-02-13T07:04:14.656Z,99408.00
2024-02-13T07:06:54.951Z,99401.00
2024-02-13T07:09:31.446Z,99405.00
2024-02-13T07:11:58.426Z,99411.00
2024-02-13T07:14:26.368Z,99415.00
2024-02-13T07:16:54.267Z,99417.00
2024-02-13T07:19:21.188Z,99415.00
2024-02-13T07:21:48.046Z,99416.00
2024-02-13T07:24:14.811Z,99428.00
2024-02-13T07:26:41.694Z,99433.00
2024-02-13T07:29:08.539Z,99434.00
2024-02-13T07:31:39.449Z,99429.00
2024-02-13T07:34:06.932Z,99425.00
2024-02-13T07:36:35.275Z,99435.00
2024-02-13T07:39:02.330Z,99431.00
2024-02-13T07:41:38.771Z,99429.00
2024-02-13T07:44:05.755Z,99443.00
2024-02-13T07:46:37.542Z,99444.00
2024-02-13T07:49:04.553Z,99449.00
2024-02-13T07:51:34.054Z,99446.00
2024-02-13T07:54:01.017Z,99444.00
2024-02-13T07:56:30.588Z,99447.00
2024-02-13T07:59:00.477Z,99451.00
2024-02-13T08:01:28.079Z,99458.00
2024-02-13T08:03:55.774Z,99456.00
2024-02-13T08:06:22.818Z,99459.00
2024-02-13T08:08:51.293Z,99453.00
2024-02-13T08:11:18.455Z,99462.00
2024-02-13T08:13:45.741Z,99468.00
2024-02-13T08:16:12.721Z,99456.00
2024-02-13T08:18:42.179Z,99468.00
2024-02-13T08:21:09.274Z,99460.00
2024-02-13T08:23:38.684Z,99471.00
2024-02-13T08:26:06.465Z,99469.00
2024-02-13T08:28:33.352Z,99474.00
2024-02-13T08:31:00.301Z,99475.00
2024-02-13T08:33:27.408Z,99476.00
2024-02-13T08:36:03.952Z,99478.00
2024-02-13T08:38:31.325Z,99475.00
2024-02-13T08:40:58.394Z,99472.00
2024-02-13T08:43:26.684Z,99468.00
2024-02-13T08:45:53.624Z,99471.00
2024-02-13T08:48:20.748Z,99474.00
2024-02-13T08:50:49.766Z,99480.00
2024-02-13T08:53:16.636Z,99472.00
2024-02-13T08:55:43.424Z,99473.00
2024-02-13T08:58:10.279Z,99478.00
2024-02-13T09:00:37.091Z,99476.00
2024-02-13T09:03:04.381Z,99478.00
2024-02-13T09:05:31.362Z,99486.00
2024-02-13T09:07:58.206Z,99474.00
2024-02-13T09:10:25.023Z,99473.00
2024-02-13T09:12:51.876Z,99473.00
2024-02-13T09:15:18.993Z,99470.00
2024-02-13T09:17:46.878Z,99462.00
2024-02-13T09:20:22.629Z,99465.00
2024-02-13T09:22:50.742Z,99454.00
2024-02-13T09:25:20.521Z,99455.00
2024-02-13T09:27:52.585Z,99461.00
2024-02-13T09:30:19.915Z,99454.00
2024-02-13T09:32:50.459Z,99460.00
2024-02-13T09:35:18.869Z,99451.00
2024-02-13T09:37:45.751Z,99454.00
2024-02-13T09:40:14.628Z,99465.00
2024-02-13T09:42:45.810Z,99469.00
2024-02-13T09:45:14.830Z,99460.00
2024-02-13T09:47:42.872Z,99466.00
2024-02-13T09:50:15.555Z,99464.00
2024-02-13T09:52:55.935Z,99464.00
2024-02-13T09:55:23.401Z,99457.00
2024-02-13T09:57:51.354Z,99464.00
2024-02-13T10:00:19.625Z,99467.00
2024-02-13T10:02:51.020Z,99469.00
2024-02-13T10:05:19.150Z,99473.00
2024-02-13T10:07:46.404Z,99463.00
2024-02-13T10:10:14.439Z,99463.00
2024-02-13T10:13:04.776Z,99471.00
2024-02-13T10:15:46.570Z,99476.00
2024-02-13T10:18:15.020Z,99473.00
2024-02-13T10:20:43.505Z,99470.00
2024-02-13T10:23:15.689Z,99481.00
2024-02-13T10:25:44.931Z,99476.00
2024-02-13T10:28:14.321Z,99475.00
2024-02-13T10:30:41.691Z,99481.00
2024-02-13T10:33:08.772Z,99480.00
2024-02-13T10:35:35.976Z,99480.00
2024-02-13T10:38:08.669Z,99483.00
2024-02-13T10:40:40.548Z,99480.00
2024-02-13T10:43:13.406Z,99488.00
2024-02-13T10:45:41.066Z,99479.00
2024-02-13T10:48:31.756Z,99489.00
2024-02-13T10:51:01.791Z,99478.00
2024-02-13T10:53:29.663Z,99477.00
2024-02-13T10:55:58.611Z,99477.00
2024-02-13T10:58:35.307Z,99489.00
2024-02-13T11:01:16.699Z,99484.00
2024-02-13T11:03:46.418Z,99468.00
2024-02-13T11:06:13.705Z,99478.00
2024-02-13T11:08:40.922Z,99482.00
2024-02-13T11:11:21.048Z,99465.00
2024-02-13T11:13:50.698Z,99472.00
2024-02-13T11:16:19.467Z,99469.00
2024-02-13T11:18:51.837Z,99461.00
2024-02-13T11:21:25.714Z,99469.00
2024-02-13T11:23:58.778Z,99470.00
2024-02-13T11:26:34.174Z,99468.00
2024-02-13T11:29:21.851Z,99457.00
2024-02-13T11:31:59.495Z,99466.00
2024-02-13T11:34:44.817Z,99461.00
2024-02-13T11:37:22.247Z,99456.00
2024-02-13T11:39:50.138Z,99443.00
2024-02-13T11:42:20.853Z,99443.00
2024-02-13T11:44:50.532Z,99441.00
2024-02-13T11:47:24.114Z,99438.00
2024-02-13T11:49:52.213Z,99431.00
2024-02-13T11:52:21.079Z,99433.00
2024-02-13T11:54:52.487Z,99439.00
2024-02-13T11:57:22.097Z,99438.00
2024-02-13T12:00:02.887Z,99435.00
2024-02-13T12:17:13.756Z,99429.00
2024-02-13T12:19:45.133Z,99427.00
2024-02-13T12:22:17.133Z,99424.00
2024-02-13T12:24:46.771Z,99419.00
2024-02-13T12:27:17.871Z,99403.00
2024-02-13T12:29:45.878Z,99412.00
2024-02-13T12:32:21.207Z,99406.00
2024-02-13T12:34:49.924Z,99408.00
2024-02-13T12:37:19.186Z,99410.00
2024-02-13T12:39:48.372Z,99396.00
2024-02-13T12:42:20.057Z,99391.00
2024-02-13T12:44:49.362Z,99402.00
2024-02-13T12:47:20.673Z,99395.00
2024-02-13T12:49:48.567Z,99394.00
2024-02-13T12:52:23.677Z,99388.00
2024-02-13T12:54:53.025Z,99393.00
2024-02-13T12:57:22.254Z,99385.00
2024-02-13T12:59:49.765Z,99383.00
2024-02-13T13:02:27.348Z,99385.00
2024-02-13T13:04:54.723Z,99384.00
2024-02-13T13:07:29.764Z,99381.00
2024-02-13T13:09:59.320Z,99385.00
2024-02-13T13:12:28.681Z,99391.00
2024-02-13T13:15:09.331Z,99392.00
2024-02-13T13:17:40.670Z,99383.00
2024-02-13T13:20:13.961Z,99376.00
2024-02-13T13:22:49.535Z,99371.00
2024-02-13T13:25:25.452Z,99370.00
2024-02-13T13:27:53.309Z,99380.00
2024-02-13T13:30:21.533Z,99374.00
2024-02-13T13:32:50.125Z,99371.00
2024-02-13T13:35:21.421Z,99365.00
2024-02-13T13:37:51.148Z,99366.00
2024-02-13T13:40:18.229Z,99360.00
2024-02-13T13:42:45.927Z,99370.00
2024-02-13T13:45:18.370Z,99369.00
2024-02-13T13:47:49.153Z,99368.00
2024-02-13T13:50:22.963Z,99375.00
2024-02-13T13:52:56.072Z,99376.00
2024-02-13T13:55:26.766Z,99374.00
2024-02-13T13:57:59.065Z,99365.00
2024-02-13T14:00:31.059Z,99374.00
2024-02-13T14:03:03.824Z,99370.00
2024-02-13T14:05:38.990Z,99371.00
2024-02-13T14:08:11.919Z,99370.00
2024-02-13T14:10:40.144Z,99362.00
2024-02-13T14:13:15.418Z,99372.00
2024-02-13T14:15:48.006Z,99364.00
2024-02-13T14:18:23.140Z,99366.00
2024-02-13T14:20:50.424Z,99365.00
2024-02-13T14:23:21.627Z,99372.00
2024-02-13T14:25:50.373Z,99383.00
2024-02-13T14:28:17.446Z,99381.00
2024-02-13T14:30:44.303Z,99375.00
2024-02-13T14:33:13.220Z,99377.00
2024-02-13T14:35:40.838Z,99384.00
2024-02-13T14:38:08.978Z,99379.00
2024-02-13T14:40:40.734Z,99361.00
2024-02-13T14:43:08.769Z,99375.00
2024-02-13T14:45:42.251Z,99368.00
2024-02-13T14:48:14.458Z,99382.00
2024-02-13T14:50:42.477Z,99372.00
2024-02-13T14:53:10.269Z,99369.00
2024-02-13T14:55:39.756Z,99369.00
2024-02-13T14:58:15.121Z,99364.00
2024-02-13T15:01:01.225Z,99361.00
2024-02-13T15:03:29.583Z,99370.00
2024-02-13T15:05:56.564Z,99371.00
2024-02-13T15:08:26.092Z,99366.00
2024-02-13T15:10:53.654Z,99363.00
2024-02-13T15:13:21.596Z,99368.00
2024-02-13T15:15:52.271Z,99374.00
2024-02-13T15:18:23.992Z,99365.00
2024-02-13T15:20:51.284Z,99364.00
2024-02-13T15:23:18.444Z,99362.00
2024-02-13T15:25:46.687Z,99367.00
2024-02-13T15:28:15.710Z,99371.00
2024-02-13T15:30:42.617Z,99380.00
2024-02-13T15:33:09.641Z,99369.00
2024-02-13T15:35:43.369Z,99368.00
2024-02-13T15:38:30.000Z,99372.00
2024-02-13T15:41:15.562Z,99372.00
2024-02-13T15:44:03.274Z,99373.00
2024-02-13T15:46:48.613Z,99377.00
2024-02-13T15:49:19.001Z,99376.00
2024-02-13T15:51:46.860Z,99377.00
2024-02-13T15:54:14.272Z,99370.00
2024-02-13T15:56:49.956Z,99380.00
2024-02-13T15:59:20.251Z,99363.00
2024-02-13T16:01:47.365Z,99376.00
2024-02-13T16:04:19.113Z,99376.00
2024-02-13T16:06:48.302Z,99385.00
2024-02-13T16:09:16.084Z,99384.00
2024-02-13T16:11:43.515Z,99383.00
2024-02-13T16:14:13.500Z,99378.00
2024-02-13T16:16:40.875Z,99381.00
2024-02-13T16:19:10.700Z,99377.00
2024-02-13T16:21:45.558Z,99387.00
2024-02-13T16:24:15.309Z,99395.00
2024-02-13T16:26:44.747Z,99395.00
2024-02-13T16:29:14.920Z,99397.00
2024-02-13T16:31:44.238Z,99388.00
2024-02-13T16:34:12.498Z,99392.00
2024-02-13T16:36:45.836Z,99393.00
2024-02-13T16:39:13.066Z,99400.00
2024-02-13T16:41:40.187Z,99411.00
2024-02-13T16:44:07.388Z,99404.00
2024-02-13T16:46:36.808Z,99411.00
2024-02-13T16:49:04.080Z,99405.00
2024-02-13T16:51:39.469Z,99411.00
2024-02-13T16:54:09.436Z,99418.00
2024-02-13T16:59:59.648Z,99412.00
2024-02-13T17:02:35.236Z,99415.00
2024-02-13T17:05:10.731Z,99423.00
2024-02-13T17:08:21.730Z,99430.00
2024-02-13T17:10:49.093Z,99430.00
2024-02-13T17:13:41.989Z,99434.00
2024-02-13T17:16:10.070Z,99433.00
2024-02-13T17:18:37.230Z,99440.00
2024-02-13T17:25:14.766Z,99448.00
2024-02-13T17:28:37.742Z,99445.00
2024-02-13T18:00:14.910Z,99455.00
2024-02-13T18:03:07.297Z,99461.00
2024-02-13T18:06:35.376Z,99461.00
2024-02-13T18:09:14.166Z,99461.00
2024-02-13T18:12:00.355Z,99444.00
2024-02-13T18:14:32.556Z,99456.00
2024-02-13T18:17:25.867Z,99444.00
2024-02-13T18:20:03.560Z,99437.00
2024-02-13T18:22:45.656Z,99443.00
2024-02-13T18:25:17.190Z,99450.00
2024-02-13T18:27:48.846Z,99446.00
2024-02-13T18:30:19.703Z,99447.00
2024-02-13T18:35:28.167Z,99444.00
2024-02-13T18:37:57.592Z,99448.00
2024-02-13T18:40:36.911Z,99446.00
2024-02-13T18:43:35.900Z,99431.00
2024-02-13T18:46:07.805Z,99444.00
2024-02-13T18:48:47.708Z,99450.00
2024-02-13T18:51:19.337Z,99445.00
2024-02-13T18:53:50.163Z,99436.00
2024-02-13T18:56:23.821Z,99451.00
2024-02-13T18:58:56.900Z,99438.00
2024-02-13T19:01:42.145Z,99443.00
2024-02-13T19:04:21.396Z,99437.00
2024-02-13T19:06:59.588Z,99429.00
2024-02-13T19:09:52.388Z,99437.00
2024-02-13T19:12:33.960Z,99438.00
2024-02-13T19:15:07.292Z,99442.00
2024-02-13T19:20:49.518Z,99441.00
2024-02-13T19:23:59.486Z,99443.00
2024-02-13T19:26:39.111Z,99442.00
2024-02-13T19:29:06.054Z,99446.00
2024-02-13T19:31:42.467Z,99446.00
2024-02-13T19:34:12.361Z,99446.00
2024-02-13T19:36:52.602Z,99441.00
2024-02-13T19:39:22.013Z,99439.00
2024-02-13T19:41:58.853Z,99445.00
2024-02-13T19:44:32.179Z,99442.00
2024-02-13T19:46:59.863Z,99430.00
2024-02-13T19:49:41.863Z,99440.00
2024-02-13T19:52:21.888Z,99442.00
2024-02-13T19:54:49.299Z,99438.00
2024-02-13T19:57:19.063Z,99443.00
2024-02-13T19:59:47.993Z,99442.00
2024-02-13T20:02:20.317Z,99438.00
2024-02-13T20:04:49.103Z,99438.00
2024-02-13T20:07:16.681Z,99460.00
2024-02-13T20:09:45.135Z,99456.00
2024-02-13T20:12:15.075Z,99453.00
2024-02-13T20:14:45.689Z,99467.00
2024-02-13T20:17:13.356Z,99465.00
2024-02-13T20:19:41.166Z,99466.00
2024-02-13T20:22:21.534Z,99468.00
2024-02-13T20:24:48.737Z,99471.00
2024-02-13T20:27:15.713Z,99472.00
2024-02-13T20:29:44.031Z,99468.00
2024-02-13T20:32:11.311Z,99477.00
2024-02-13T20:34:38.714Z,99473.00
2024-02-13T20:37:05.889Z,99473.00
2024-02-13T20:39:34.046Z,99473.00
2024-02-13T20:42:03.432Z,99478.00
2024-02-13T20:44:36.614Z,99497.00
2024-02-13T20:47:03.706Z,99492.00
2024-02-13T20:49:32.022Z,99485.00
2024-02-13T20:51:58.951Z,99487.00
2024-02-13T20:54:26.118Z,99488.00
2024-02-13T20:56:53.184Z,99494.00
2024-02-13T20:59:21.188Z,99488.00
2024-02-13T21:01:49.405Z,99489.00
2024-02-13T21:04:16.743Z,99496.00
2024-02-13T21:06:45.174Z,99493.00
2024-02-13T21:09:13.542Z,99501.00
2024-02-13T21:11:41.646Z,99502.00
2024-02-13T21:14:08.945Z,99501.00
2024-02-13T21:16:35.819Z,99516.00
2024-02-13T21:19:03.073Z,99518.00
2024-02-13T21:21:48.448Z,99514.00
2024-02-13T21:24:15.423Z,99521.00
2024-02-13T21:26:42.603Z,99516.00
2024-02-13T21:29:10.085Z,99512.00
2024-02-13T21:31:37.626Z,99519.00
2024-02-13T21:34:07.122Z,99514.00
2024-02-13T21:36:37.834Z,99523.00
2024-02-13T21:39:09.073Z,99518.00
2024-02-13T21:41:37.169Z,99524.00
2024-02-13T21:44:04.998Z,99510.00
2024-02-13T21:46:32.660Z,99511.00
2024-02-13T21:49:00.146Z,99516.00
2024-02-13T21:51:27.025Z,99519.00
2024-02-13T21:53:54.093Z,99513.00
2024-02-13T21:56:23.139Z,99518.00
2024-02-13T21:58:50.613Z,99521.00
2024-02-13T22:01:17.735Z,99519.00
2024-02-13T22:03:44.697Z,99527.00
2024-02-13T22:06:16.053Z,99525.00
2024-02-13T22:08:44.283Z,99516.00
2024-02-13T22:11:11.879Z,99526.00
2024-02-13T22:13:38.706Z,99524.00
2024-02-13T22:16:06.152Z,99530.00
2024-02-13T22:18:33.051Z,99528.00
2024-02-13T22:21:00.121Z,99536.00
2024-02-13T22:23:27.112Z,99530.00
2024-02-13T22:25:57.858Z,99532.00
2024-02-13T22:28:24.707Z,99538.00
2024-02-13T22:30:51.660Z,99541.00
2024-02-13T22:33:18.723Z,99544.00
2024-02-13T22:35:45.842Z,99545.00
2024-02-13T22:38:12.787Z,99539.00
2024-02-13T22:40:39.614Z,99546.00
2024-02-13T22:43:06.474Z,99542.00
2024-02-13T22:45:33.543Z,99541.00
2024-02-13T22:48:03.038Z,99539.00
2024-02-13T22:50:30.766Z,99535.00
2024-02-13T22:52:59.829Z,99530.00
2024-02-13T22:55:30.532Z,99539.00
2024-02-13T22:58:00.749Z,99542.00
2024-02-13T23:00:44.833Z,99527.00
2024-02-13T23:03:14.018Z,99538.00
2024-02-13T23:05:47.994Z,99551.00
2024-02-13T23:08:16.768Z,99555.00
2024-02-13T23:10:43.803Z,99545.00
2024-02-13T23:13:13.531Z,99556.00
2024-02-13T23:15:43.876Z,99562.00
2024-02-13T23:18:12.088Z,99563.00
2024-02-13T23:20:39.266Z,99565.00
2024-02-13T23:23:06.376Z,99560.00
2024-02-13T23:25:36.468Z,99565.00
2024-02-13T23:28:08.003Z,99562.00
2024-02-13T23:30:36.133Z,99560.00
2024-02-13T23:33:03.397Z,99567.00
2024-02-13T23:35:30.323Z,99566.00
2024-02-13T23:37:57.271Z,99551.00
2024-02-13T23:40:24.828Z,99566.00
2024-02-13T23:42:52.585Z,99564.00
2024-02-13T23:45:19.779Z,99548.00
2024-02-13T23:47:47.851Z,99545.00
2024-02-13T23:50:15.076Z,99560.00
2024-02-13T23:52:42.434Z,99554.00
2024-02-13T23:55:10.684Z,99567.00
2024-02-13T23:57:45.986Z,99571.00
